createdAt,value
2018-07-19T00:01:27.875Z,19.50
2018-07-19T00:03:55.692Z,19.50
2018-07-19T00:06:23.456Z,19.50
2018-07-19T00:08:51.221Z,19.60
2018-07-19T00:11:19.038Z,19.50
2018-07-19T00:13:46.791Z,19.40
2018-07-19T00:16:14.594Z,19.60
2018-07-19T00:18:42.348Z,19.60
2018-07-19T00:23:37.782Z,19.60
2018-07-19T00:26:05.569Z,19.60
2018-07-19T00:28:33.339Z,19.40
2018-07-19T00:31:01.076Z,19.60
2018-07-19T00:35:56.511Z,19.50
2018-07-19T00:38:24.266Z,18.90
2018-07-19T00:40:52.049Z,19.00
2018-07-19T00:43:19.819Z,18.90
2018-07-19T00:45:47.612Z,19.10
2018-07-19T00:48:15.404Z,19.10
2018-07-19T00:50:43.186Z,19.10
2018-07-19T00:55:38.973Z,18.60
2018-07-19T00:58:06.719Z,19.10
2018-07-19T01:00:34.518Z,18.80
2018-07-19T01:03:02.288Z,19.00
2018-07-19T01:05:30.089Z,18.90
2018-07-19T01:07:57.879Z,18.70
2018-07-19T01:10:25.725Z,19.00
2018-07-19T01:12:53.715Z,18.90
2018-07-19T01:15:21.482Z,18.60
2018-07-19T01:17:49.346Z,18.80
2018-07-19T01:20:17.116Z,19.10
2018-07-19T01:22:44.982Z,19.40
2018-07-19T01:25:12.807Z,19.30
2018-07-19T01:30:08.315Z,19.20
2018-07-19T01:32:36.303Z,19.60
2018-07-19T01:35:04.096Z,19.20
2018-07-19T01:37:31.855Z,19.20
2018-07-19T01:39:59.662Z,18.80
2018-07-19T01:42:34.023Z,19.30
2018-07-19T01:45:01.862Z,19.10
2018-07-19T01:47:29.766Z,19.20
2018-07-19T01:49:57.540Z,19.30
2018-07-19T01:52:25.374Z,18.90
2018-07-19T01:54:53.143Z,19.10
2018-07-19T01:57:21.171Z,19.30
2018-07-19T01:59:49.550Z,18.90
2018-07-19T02:02:18.313Z,18.90
2018-07-19T02:04:46.192Z,19.00
2018-07-19T02:07:13.999Z,18.90
2018-07-19T02:09:41.813Z,18.70
2018-07-19T02:12:09.685Z,19.00
2018-07-19T02:14:37.470Z,18.80
2018-07-19T02:17:05.501Z,18.60
2018-07-19T02:22:01.055Z,18.60
2018-07-19T02:24:28.865Z,18.70
2018-07-19T02:26:56.663Z,17.90
2018-07-19T02:31:52.095Z,18.60
2018-07-19T02:34:19.964Z,18.60
2018-07-19T02:36:47.745Z,18.80
2018-07-19T02:39:15.635Z,18.60
2018-07-19T02:41:43.419Z,18.70
2018-07-19T02:44:12.267Z,19.00
2018-07-19T02:46:41.091Z,18.90
2018-07-19T02:49:09.195Z,18.80
2018-07-19T02:51:37.624Z,18.80
2018-07-19T02:54:05.453Z,19.00
2018-07-19T02:59:00.922Z,18.60
2018-07-19T03:01:28.757Z,18.50
2018-07-19T03:03:56.528Z,18.70
2018-07-19T03:06:24.555Z,18.60
2018-07-19T03:08:52.344Z,18.70
2018-07-19T03:13:48.011Z,18.70
2018-07-19T03:16:15.817Z,18.30
2018-07-19T03:18:43.619Z,18.20
2018-07-19T03:21:11.505Z,18.20
2018-07-19T03:23:39.316Z,18.30
2018-07-19T03:26:07.088Z,18.20
2018-07-19T03:28:34.875Z,18.30
2018-07-19T03:31:02.703Z,17.90
2018-07-19T03:33:30.431Z,17.90
2018-07-19T03:35:58.246Z,18.20
2018-07-19T03:38:26.066Z,18.30
2018-07-19T03:40:53.820Z,18.30
2018-07-19T03:43:21.664Z,18.40
2018-07-19T03:45:49.415Z,18.30
2018-07-19T03:48:17.188Z,18.10
2018-07-19T03:53:12.652Z,18.20
2018-07-19T03:55:40.439Z,18.20
2018-07-19T03:58:08.258Z,18.20
2018-07-19T04:00:36.023Z,18.30
2018-07-19T04:03:03.790Z,18.20
2018-07-19T04:05:31.579Z,18.10
2018-07-19T04:07:59.310Z,18.00
2018-07-19T04:10:27.130Z,17.80
2018-07-19T04:12:54.935Z,17.70
2018-07-19T04:20:24.748Z,17.80
2018-07-19T04:22:52.991Z,17.50
2018-07-19T04:25:21.044Z,17.40
2018-07-19T04:27:48.819Z,17.70
2018-07-19T04:30:16.791Z,18.00
2018-07-19T04:32:44.740Z,18.10
2018-07-19T04:35:12.598Z,18.00
2018-07-19T04:37:40.524Z,18.10
2018-07-19T04:40:08.363Z,18.00
2018-07-19T04:42:36.139Z,18.00
2018-07-19T04:45:04.634Z,18.30
2018-07-19T04:47:32.365Z,18.10
2018-07-19T04:50:00.144Z,18.40
2018-07-19T04:52:27.929Z,18.70
2018-07-19T04:54:55.850Z,18.50
2018-07-19T04:57:23.716Z,18.30
2018-07-19T04:59:51.501Z,18.30
2018-07-19T05:02:19.709Z,18.10
2018-07-19T05:04:47.531Z,18.10
2018-07-19T05:07:15.312Z,18.10
2018-07-19T05:09:43.494Z,18.00
2018-07-19T05:12:11.272Z,18.40
2018-07-19T05:14:39.056Z,18.70
2018-07-19T05:17:06.824Z,18.50
2018-07-19T05:19:34.543Z,18.80
2018-07-19T05:22:02.399Z,18.90
2018-07-19T05:24:30.174Z,18.80
2018-07-19T05:26:57.954Z,18.90
2018-07-19T05:29:25.763Z,18.80
2018-07-19T05:31:53.573Z,19.00
2018-07-19T05:34:21.371Z,19.00
2018-07-19T05:36:49.340Z,18.90
2018-07-19T05:39:17.098Z,18.60
2018-07-19T05:41:44.839Z,18.80
2018-07-19T05:44:12.567Z,18.90
2018-07-19T05:46:40.255Z,18.80
2018-07-19T05:51:35.555Z,18.80
2018-07-19T05:54:03.507Z,18.60
2018-07-19T05:56:31.303Z,18.80
2018-07-19T05:58:59.057Z,19.00
2018-07-19T06:03:54.497Z,18.80
2018-07-19T06:08:50.035Z,18.80
2018-07-19T06:11:17.903Z,19.00
2018-07-19T06:16:13.459Z,19.20
2018-07-19T06:18:41.244Z,19.50
2018-07-19T06:21:09.080Z,19.60
2018-07-19T06:23:36.857Z,19.30
2018-07-19T06:26:04.823Z,19.50
2018-07-19T06:28:32.611Z,19.60
2018-07-19T06:31:00.430Z,19.80
2018-07-19T06:33:28.401Z,19.80
2018-07-19T06:35:56.356Z,19.10
2018-07-19T06:40:51.820Z,19.60
2018-07-19T06:43:19.555Z,20.00
2018-07-19T06:45:47.302Z,20.20
2018-07-19T06:48:15.035Z,20.00
2018-07-19T06:50:42.788Z,20.30
2018-07-19T06:53:10.579Z,20.40
2018-07-19T06:55:38.314Z,20.50
2018-07-19T06:58:06.103Z,20.40
2018-07-19T07:00:33.868Z,20.40
2018-07-19T07:05:29.326Z,21.40
2018-07-19T07:10:24.757Z,21.80
2018-07-19T07:15:20.193Z,21.90
2018-07-19T07:20:15.617Z,21.90
2018-07-19T07:22:43.346Z,22.30
2018-07-19T07:25:11.164Z,22.40
2018-07-19T07:27:38.940Z,22.20
2018-07-19T07:30:06.708Z,22.20
2018-07-19T07:32:34.502Z,22.40
2018-07-19T07:35:02.272Z,22.90
2018-07-19T07:37:30.083Z,23.10
2018-07-19T07:39:57.883Z,23.20
2018-07-19T07:42:25.667Z,23.20
2018-07-19T07:44:53.436Z,23.20
2018-07-19T07:47:21.196Z,23.50
2018-07-19T07:49:48.947Z,24.20
2018-07-19T07:52:16.739Z,23.80
2018-07-19T07:54:44.507Z,24.20
2018-07-19T07:57:12.270Z,23.60
2018-07-19T07:59:40.006Z,23.80
2018-07-19T08:02:08.019Z,24.30
2018-07-19T08:07:03.423Z,24.40
2018-07-19T08:09:31.175Z,24.00
2018-07-19T08:11:58.977Z,24.30
2018-07-19T08:19:22.003Z,23.20
2018-07-19T08:21:49.756Z,23.40
2018-07-19T08:26:45.095Z,24.30
2018-07-19T08:29:12.821Z,24.50
2018-07-19T08:34:08.241Z,25.10
2018-07-19T08:36:35.995Z,25.20
2018-07-19T08:39:06.773Z,25.90
2018-07-19T08:41:34.510Z,25.60
2018-07-19T08:46:29.854Z,25.90
2018-07-19T08:48:57.568Z,26.20
2018-07-19T08:51:25.363Z,26.20
2018-07-19T08:56:20.685Z,26.50
2018-07-19T08:58:48.720Z,27.00
2018-07-19T09:01:16.435Z,26.20
2018-07-19T09:03:44.147Z,25.70
2018-07-19T09:06:11.976Z,27.50
2018-07-19T09:08:39.687Z,28.40
2018-07-19T09:11:07.386Z,29.70
2018-07-19T09:16:02.775Z,30.00
2018-07-19T09:18:30.566Z,30.50
2018-07-19T09:23:25.884Z,31.50
2018-07-19T09:25:53.639Z,32.40
2018-07-19T09:28:21.374Z,33.70
2018-07-19T09:30:49.223Z,32.30
2018-07-19T09:33:16.918Z,30.90
2018-07-19T09:35:44.636Z,30.90
2018-07-19T09:38:12.343Z,31.60
2018-07-19T09:40:40.077Z,31.30
2018-07-19T09:43:07.815Z,30.10
2018-07-19T09:50:30.830Z,31.50
2018-07-19T09:52:58.564Z,31.50
2018-07-19T09:55:26.316Z,30.40
2018-07-19T10:00:28.335Z,33.30
2018-07-19T10:02:56.062Z,34.30
2018-07-19T10:05:23.827Z,34.50
2018-07-19T10:10:19.268Z,34.80
2018-07-19T10:12:47.067Z,34.10
2018-07-19T10:15:15.076Z,32.20
2018-07-19T10:17:42.834Z,32.40
2018-07-19T10:22:38.341Z,32.70
2018-07-19T10:25:06.169Z,32.70
2018-07-19T10:27:33.964Z,31.40
2018-07-19T10:30:01.747Z,31.80
2018-07-19T10:32:29.564Z,33.40
2018-07-19T10:34:57.239Z,33.50
2018-07-19T10:37:25.166Z,33.80
2018-07-19T10:39:52.907Z,32.60
2018-07-19T10:42:21.288Z,32.20
2018-07-19T10:44:49.110Z,31.60
2018-07-19T10:47:17.003Z,30.50
2018-07-19T10:49:44.837Z,31.10
2018-07-19T10:54:40.734Z,33.10
2018-07-19T10:57:08.907Z,34.20
2018-07-19T10:59:36.635Z,33.90
2018-07-19T11:02:04.599Z,34.60
2018-07-19T11:04:32.449Z,36.30
2018-07-19T11:07:00.197Z,36.10
2018-07-19T11:09:28.006Z,36.30
2018-07-19T11:19:18.535Z,33.40
2018-07-19T11:21:46.270Z,32.00
2018-07-19T11:24:14.083Z,32.80
2018-07-19T11:26:41.857Z,33.70
2018-07-19T11:29:09.643Z,35.50
2018-07-19T11:31:37.391Z,36.80
2018-07-19T11:34:05.439Z,37.00
2018-07-19T11:36:33.197Z,38.40
2018-07-19T11:39:00.944Z,38.30
2018-07-19T11:43:56.526Z,37.90
2018-07-19T11:46:24.263Z,37.30
2018-07-19T11:48:51.955Z,36.70
2018-07-19T11:51:19.691Z,36.30
2018-07-19T11:53:47.378Z,36.80
2018-07-19T11:56:15.104Z,34.70
2018-07-19T12:01:10.572Z,34.40
2018-07-19T12:03:38.304Z,36.00
2018-07-19T12:06:06.171Z,37.20
2018-07-19T12:08:33.845Z,36.00
2018-07-19T12:11:01.599Z,35.90
2018-07-19T12:13:29.327Z,33.50
2018-07-19T12:15:57.095Z,33.40
2018-07-19T12:18:24.785Z,33.60
2018-07-19T12:20:52.519Z,33.50
2018-07-19T12:23:20.423Z,32.40
2018-07-19T12:25:48.182Z,32.30
2018-07-19T12:28:15.864Z,31.90
2018-07-19T12:30:43.612Z,33.30
2018-07-19T12:33:11.307Z,32.00
2018-07-19T12:35:39.067Z,31.40
2018-07-19T12:38:06.832Z,30.60
2018-07-19T12:40:34.639Z,32.20
2018-07-19T12:43:02.465Z,32.50
2018-07-19T12:45:30.191Z,31.90
2018-07-19T12:47:57.931Z,33.40
2018-07-19T12:50:25.667Z,32.70
2018-07-19T12:52:53.395Z,32.40
2018-07-19T12:55:21.148Z,33.30
2018-07-19T13:00:16.676Z,32.80
2018-07-19T13:02:44.443Z,33.50
2018-07-19T13:07:39.763Z,35.30
2018-07-19T13:10:07.607Z,35.60
2018-07-19T13:12:35.631Z,36.40
2018-07-19T13:15:04.492Z,35.10
2018-07-19T13:17:32.278Z,32.70
2018-07-19T13:20:00.007Z,32.90
2018-07-19T13:25:26.069Z,33.90
2018-07-19T13:27:53.874Z,33.00
2018-07-19T13:30:21.688Z,32.80
2018-07-19T13:35:17.098Z,33.10
2018-07-19T13:37:44.919Z,33.10
2018-07-19T13:40:12.692Z,32.80
2018-07-19T13:42:40.452Z,33.90
2018-07-19T13:45:08.194Z,32.90
2018-07-19T13:47:36.002Z,32.50
2018-07-19T13:50:04.194Z,33.30
2018-07-19T13:52:43.244Z,33.30
2018-07-19T13:57:38.627Z,31.10
2018-07-19T14:00:06.422Z,31.40
2018-07-19T14:02:34.155Z,31.00
2018-07-19T14:05:01.876Z,32.70
2018-07-19T14:07:29.597Z,33.30
2018-07-19T14:09:57.443Z,33.00
2018-07-19T14:12:25.178Z,31.70
2018-07-19T14:14:52.942Z,30.40
2018-07-19T14:17:20.727Z,30.20
2018-07-19T14:19:48.461Z,30.20
2018-07-19T14:22:16.195Z,30.70
2018-07-19T14:24:44.111Z,30.90
2018-07-19T14:27:11.814Z,30.80
2018-07-19T14:29:39.633Z,31.40
2018-07-19T14:32:07.409Z,30.70
2018-07-19T14:34:35.280Z,31.90
2018-07-19T14:37:03.071Z,31.70
2018-07-19T14:39:30.775Z,32.70
2018-07-19T14:44:26.211Z,33.20
2018-07-19T14:46:53.944Z,33.30
2018-07-19T14:49:21.658Z,32.80
2018-07-19T14:51:49.426Z,32.60
2018-07-19T14:54:17.191Z,32.70
2018-07-19T14:56:45.035Z,32.60
2018-07-19T14:59:12.822Z,32.60
2018-07-19T15:01:40.614Z,32.60
2018-07-19T15:04:08.407Z,32.30
2018-07-19T15:06:36.220Z,32.50
2018-07-19T15:09:07.625Z,32.40
2018-07-19T15:11:35.387Z,32.40
2018-07-19T15:14:03.179Z,31.00
2018-07-19T15:16:30.939Z,31.30
2018-07-19T15:18:58.657Z,32.50
2018-07-19T15:21:26.383Z,31.80
2018-07-19T15:23:54.124Z,31.40
2018-07-19T15:26:21.886Z,31.40
2018-07-19T15:28:49.624Z,30.90
2018-07-19T15:31:17.371Z,31.10
2018-07-19T15:33:45.211Z,30.60
2018-07-19T15:36:12.963Z,31.30
2018-07-19T15:38:40.669Z,31.40
2018-07-19T15:41:08.467Z,31.60
2018-07-19T15:43:36.229Z,31.90
2018-07-19T15:46:04.046Z,31.80
2018-07-19T15:48:31.798Z,31.70
2018-07-19T15:50:59.572Z,31.60
2018-07-19T15:53:27.352Z,31.30
2018-07-19T15:55:55.095Z,31.30
2018-07-19T15:58:22.939Z,30.80
2018-07-19T16:00:50.735Z,31.00
2018-07-19T16:03:18.484Z,31.10
2018-07-19T16:05:46.299Z,30.90
2018-07-19T16:08:14.096Z,30.70
2018-07-19T16:10:41.866Z,30.30
2018-07-19T16:13:09.633Z,30.50
2018-07-19T16:15:37.392Z,30.80
2018-07-19T16:20:32.816Z,30.60
2018-07-19T16:23:00.621Z,30.50
2018-07-19T16:25:28.424Z,30.40
2018-07-19T16:27:56.398Z,30.50
2018-07-19T16:30:24.126Z,30.60
2018-07-19T16:32:51.929Z,30.70
2018-07-19T16:35:19.689Z,29.80
2018-07-19T16:37:47.423Z,29.30
2018-07-19T16:40:15.212Z,29.30
2018-07-19T16:42:43.017Z,29.30
2018-07-19T16:45:10.787Z,29.40
2018-07-19T16:47:38.554Z,29.00
2018-07-19T16:50:06.308Z,29.20
2018-07-19T16:52:34.123Z,29.70
2018-07-19T16:55:01.871Z,29.70
2018-07-19T16:57:29.602Z,29.60
2018-07-19T16:59:57.399Z,29.40
2018-07-19T17:02:25.167Z,29.50
2018-07-19T17:04:52.947Z,29.80
2018-07-19T17:07:20.684Z,29.10
2018-07-19T17:09:48.432Z,29.50
2018-07-19T17:12:16.258Z,29.20
2018-07-19T17:14:44.071Z,29.30
2018-07-19T17:17:11.880Z,29.60
2018-07-19T17:19:39.866Z,29.30
2018-07-19T17:22:07.633Z,29.20
2018-07-19T17:24:35.397Z,29.10
2018-07-19T17:27:03.154Z,28.80
2018-07-19T17:29:30.923Z,28.90
2018-07-19T17:31:58.654Z,29.30
2018-07-19T17:34:26.469Z,29.00
2018-07-19T17:36:54.325Z,28.40
2018-07-19T17:39:22.116Z,29.20
2018-07-19T17:41:50.020Z,29.20
2018-07-19T17:44:17.964Z,29.10
2018-07-19T17:46:45.940Z,29.30
2018-07-19T17:49:13.978Z,28.60
2018-07-19T17:51:41.747Z,28.90
2018-07-19T17:54:09.526Z,28.60
2018-07-19T17:56:37.366Z,28.40
2018-07-19T17:59:05.196Z,28.80
2018-07-19T18:01:33.172Z,28.60
2018-07-19T18:04:00.899Z,28.60
2018-07-19T18:06:28.646Z,28.40
2018-07-19T18:08:56.480Z,28.20
2018-07-19T18:11:26.115Z,28.40
2018-07-19T18:13:54.167Z,28.30
2018-07-19T18:16:22.256Z,28.20
2018-07-19T18:21:17.913Z,28.20
2018-07-19T18:23:45.795Z,27.80
2018-07-19T18:26:14.059Z,27.70
2018-07-19T18:28:43.671Z,27.60
2018-07-19T18:31:12.118Z,27.50
2018-07-19T18:33:40.278Z,27.40
2018-07-19T18:38:35.752Z,27.70
2018-07-19T18:41:03.548Z,27.10
2018-07-19T18:43:31.374Z,27.30
2018-07-19T18:45:59.310Z,27.10
2018-07-19T18:48:27.112Z,26.90
2018-07-19T18:50:54.904Z,26.70
2018-07-19T18:53:22.698Z,26.90
2018-07-19T18:55:50.547Z,26.50
2018-07-19T18:58:18.301Z,26.50
2018-07-19T19:00:46.056Z,26.40
2018-07-19T19:03:13.827Z,26.40
2018-07-19T19:05:41.546Z,26.20
2018-07-19T19:08:09.287Z,26.30
2018-07-19T19:10:37.057Z,26.20
2018-07-19T19:13:04.909Z,25.80
2018-07-19T19:15:32.679Z,25.60
2018-07-19T19:18:00.411Z,25.50
2018-07-19T19:20:28.159Z,25.50
2018-07-19T19:22:55.873Z,25.40
2018-07-19T19:25:23.638Z,25.30
2018-07-19T19:27:51.379Z,25.20
2018-07-19T19:30:19.168Z,25.00
2018-07-19T19:32:46.881Z,24.90
2018-07-19T19:35:14.640Z,24.80
2018-07-19T19:37:42.409Z,24.70
2018-07-19T19:40:10.182Z,24.70
2018-07-19T19:42:37.915Z,24.50
2018-07-19T19:45:05.724Z,24.30
2018-07-19T19:47:33.463Z,24.50
2018-07-19T19:50:01.234Z,24.30
2018-07-19T19:52:29.066Z,24.50
2018-07-19T19:57:24.455Z,24.20
2018-07-19T19:59:52.311Z,23.90
2018-07-19T20:02:20.139Z,24.20
2018-07-19T20:04:48.099Z,24.10
2018-07-19T20:07:15.831Z,24.10
2018-07-19T20:09:43.594Z,23.90
2018-07-19T20:12:11.558Z,23.80
2018-07-19T20:14:39.382Z,23.30
2018-07-19T20:17:07.252Z,23.50
2018-07-19T20:22:02.619Z,23.20
2018-07-19T20:24:30.344Z,23.30
2018-07-19T20:26:58.188Z,23.00
2018-07-19T20:29:25.936Z,23.40
2018-07-19T20:31:53.700Z,23.50
2018-07-19T20:34:21.448Z,23.50
2018-07-19T20:36:49.231Z,23.30
2018-07-19T20:41:44.575Z,23.10
2018-07-19T20:44:12.342Z,23.30
2018-07-19T20:46:40.136Z,22.90
2018-07-19T20:49:08.037Z,22.70
2018-07-19T20:51:35.761Z,22.80
2018-07-19T20:54:03.602Z,22.70
2018-07-19T20:56:31.339Z,22.70
2018-07-19T20:58:59.129Z,22.80
2018-07-19T21:03:54.487Z,22.60
2018-07-19T21:06:22.221Z,22.70
2018-07-19T21:11:17.672Z,22.60
2018-07-19T21:13:45.541Z,22.80
2018-07-19T21:16:13.314Z,22.50
2018-07-19T21:18:41.247Z,22.70
2018-07-19T21:21:09.056Z,22.50
2018-07-19T21:23:36.902Z,22.70
2018-07-19T21:26:04.731Z,22.40
2018-07-19T21:28:32.537Z,22.40
2018-07-19T21:31:00.267Z,22.70
2018-07-19T21:35:55.663Z,22.50
2018-07-19T21:38:24.199Z,21.90
2018-07-19T21:40:51.959Z,21.70
2018-07-19T21:43:19.706Z,22.00
2018-07-19T21:48:15.095Z,21.90
2018-07-19T21:50:42.863Z,22.10
2018-07-19T21:53:10.589Z,21.80
2018-07-19T21:55:38.330Z,21.90
2018-07-19T21:58:06.028Z,21.60
2018-07-19T22:00:38.288Z,22.00
2018-07-19T22:03:06.095Z,21.80
2018-07-19T22:05:33.819Z,22.10
2018-07-19T22:08:01.559Z,22.00
2018-07-19T22:12:57.111Z,22.20
2018-07-19T22:15:24.887Z,22.30
2018-07-19T22:17:52.688Z,22.40
2018-07-19T22:20:20.440Z,21.90
2018-07-19T22:22:48.203Z,22.50
2018-07-19T22:25:15.903Z,21.90
2018-07-19T22:30:11.295Z,22.50
2018-07-19T22:32:39.037Z,22.30
2018-07-19T22:35:06.759Z,22.40
2018-07-19T22:40:02.079Z,22.40
2018-07-19T22:44:57.441Z,22.40
2018-07-19T22:47:25.258Z,22.30
2018-07-19T22:52:20.587Z,22.40
2018-07-19T22:57:15.901Z,22.40
2018-07-19T22:59:43.644Z,22.10
2018-07-19T23:02:11.442Z,22.20
2018-07-19T23:04:39.231Z,22.00
2018-07-19T23:07:06.951Z,22.00
2018-07-19T23:09:34.739Z,22.10
2018-07-19T23:14:30.184Z,21.80
2018-07-19T23:16:57.912Z,21.90
2018-07-19T23:19:25.686Z,21.90
2018-07-19T23:21:53.435Z,21.80
2018-07-19T23:24:21.174Z,21.90
2018-07-19T23:26:49.036Z,21.70
2018-07-19T23:29:16.874Z,21.70
2018-07-19T23:31:44.703Z,21.60
2018-07-19T23:34:12.528Z,21.80
2018-07-19T23:36:46.778Z,21.70
2018-07-19T23:39:23.399Z,21.80
2018-07-19T23:41:55.331Z,21.70
2018-07-19T23:46:59.255Z,21.70
2018-07-19T23:49:27.415Z,21.90
2018-07-19T23:51:55.163Z,21.80
2018-07-19T23:54:22.910Z,21.50
2018-07-19T23:56:50.655Z,21.50
2018-07-19T23:59:18.403Z,21.30
